Time;durP1;ratioP1;P1;durP2;ratioP2;P2;SDS_P1;SDS_P2;PMS_P1;PMS_P2;Temp;Humidity;BMP_temperature;BMP_pressure;BME280_temperature;BME280_humidity;BME280_pressure;Samples;Min_cycle;Max_cycle;Signal;HPM_P1;HPM_P2
2023/11/09 00:00:03;;;;;;;35.92;20.85;;;;;;;;;;4888268;29;20061;-76
2023/11/09 00:02:34;;;;;;;44.95;32.55;;;;;;;;;;4903800;29;20601;-75
2023/11/09 00:05:01;;;;;;;65.90;39.05;;;;;;;;;;4883771;29;20192;-77
2023/11/09 00:07:29;;;;;;;41.97;27.27;;;;;;;;;;4950823;29;20048;-77
2023/11/09 00:09:56;;;;;;;39.90;25.88;;;;;;;;;;4919286;29;20048;-76
2023/11/09 00:12:23;;;;;;;32.70;19.27;;;;;;;;;;4919681;29;20054;-76
2023/11/09 00:14:48;;;;;;;34.42;22.27;;;;;;;;;;4935215;29;20032;-76
2023/11/09 00:17:15;;;;;;;67.97;41.40;;;;;;;;;;4935313;29;20050;-77
2023/11/09 00:19:40;;;;;;;46.10;27.15;;;;;;;;;;4904801;29;20425;-76
2023/11/09 00:22:08;;;;;;;48.72;30.95;;;;;;;;;;4952197;29;20039;-77
2023/11/09 00:24:34;;;;;;;36.92;16.08;;;;;;;;;;4935126;29;20031;-77
2023/11/09 00:27:01;;;;;;;31.92;19.20;;;;;;;;;;4950859;29;20389;-77
2023/11/09 00:29:27;;;;;;;29.80;19.48;;;;;;;;;;4937054;29;20090;-77
2023/11/09 00:31:53;;;;;;;32.20;17.83;;;;;;;;;;4949942;29;20118;-76
2023/11/09 00:34:19;;;;;;;27.13;17.45;;;;;;;;;;4917916;29;20401;-76
2023/11/09 00:36:44;;;;;;;34.03;19.90;;;;;;;;;;4917894;29;20124;-76
2023/11/09 00:39:12;;;;;;;26.80;17.02;;;;;;;;;;4918567;29;20047;-77
2023/11/09 00:41:41;;;;;;;40.72;24.42;;;;;;;;;;4934139;29;20043;-76
2023/11/09 00:44:09;;;;;;;39.28;22.38;;;;;;;;;;4933960;29;20130;-77
2023/11/09 00:46:42;;;;;;;26.98;15.63;;;;;;;;;;4933611;29;20043;-77
2023/11/09 00:49:07;;;;;;;30.35;18.50;;;;;;;;;;4933481;29;20035;-76
2023/11/09 00:51:33;;;;;;;32.67;16.67;;;;;;;;;;4917722;29;20144;-77
2023/11/09 00:53:58;;;;;;;27.00;16.30;;;;;;;;;;4949562;29;20048;-77
2023/11/09 00:56:25;;;;;;;25.42;15.25;;;;;;;;;;4918790;29;20043;-78
2023/11/09 00:58:51;;;;;;;29.33;14.93;;;;;;;;;;4934449;29;20060;-76
2023/11/09 01:01:18;;;;;;;29.42;15.13;;;;;;;;;;4917415;29;20055;-75
2023/11/09 01:03:44;;;;;;;25.83;14.07;;;;;;;;;;4936607;29;20043;-76
2023/11/09 01:06:11;;;;;;;20.50;13.02;;;;;;;;;;4948929;28;20394;-76
2023/11/09 01:08:37;;;;;;;18.15;9.25;;;;;;;;;;4934724;29;20047;-76
2023/11/09 01:11:05;;;;;;;23.80;10.38;;;;;;;;;;4917155;29;20520;-77
2023/11/09 01:13:34;;;;;;;15.48;8.95;;;;;;;;;;4901970;29;20214;-77
2023/11/09 01:16:01;;;;;;;15.77;9.02;;;;;;;;;;4902852;29;20070;-75
2023/11/09 01:18:27;;;;;;;15.43;7.80;;;;;;;;;;4902719;29;20036;-76
2023/11/09 01:20:53;;;;;;;17.48;8.35;;;;;;;;;;4917064;29;20055;-76
2023/11/09 01:23:19;;;;;;;18.20;8.02;;;;;;;;;;4901035;29;20043;-76
2023/11/09 01:25:44;;;;;;;16.40;8.25;;;;;;;;;;4916891;29;20052;-76
2023/11/09 01:28:11;;;;;;;13.52;7.80;;;;;;;;;;4917156;29;20028;-76
2023/11/09 01:30:37;;;;;;;18.40;9.05;;;;;;;;;;4901237;29;20139;-76
2023/11/09 01:33:04;;;;;;;18.90;8.30;;;;;;;;;;4901359;29;20122;-78
2023/11/09 01:35:30;;;;;;;16.05;8.18;;;;;;;;;;4934027;29;20035;-77
2023/11/09 01:37:56;;;;;;;13.32;7.57;;;;;;;;;;4902263;29;20189;-77
2023/11/09 01:40:24;;;;;;;14.60;7.60;;;;;;;;;;4901034;29;20458;-77
2023/11/09 01:42:54;;;;;;;14.65;7.70;;;;;;;;;;4914604;29;20617;-77
2023/11/09 01:45:20;;;;;;;14.23;7.88;;;;;;;;;;4918146;29;20042;-78
2023/11/09 01:47:46;;;;;;;11.35;7.47;;;;;;;;;;4933663;29;20047;-77
2023/11/09 01:50:12;;;;;;;13.80;7.20;;;;;;;;;;4933730;29;20039;-77
2023/11/09 01:52:38;;;;;;;12.82;7.03;;;;;;;;;;4933556;29;20118;-77
2023/11/09 01:55:04;;;;;;;13.00;6.78;;;;;;;;;;4919436;29;20352;-77
2023/11/09 01:57:32;;;;;;;15.52;7.10;;;;;;;;;;4934304;29;20051;-78
2023/11/09 01:59:59;;;;;;;11.45;6.55;;;;;;;;;;4918604;29;20149;-77
2023/11/09 02:02:25;;;;;;;14.50;7.45;;;;;;;;;;4918292;29;20394;-77
2023/11/09 02:04:52;;;;;;;11.50;6.55;;;;;;;;;;4949205;29;20054;-77
2023/11/09 02:07:19;;;;;;;11.68;6.93;;;;;;;;;;4917596;29;20051;-78
2023/11/09 02:09:47;;;;;;;20.27;7.25;;;;;;;;;;4936997;29;20039;-78
2023/11/09 02:12:12;;;;;;;13.43;6.97;;;;;;;;;;4937190;29;20098;-77
2023/11/09 02:14:38;;;;;;;12.82;6.93;;;;;;;;;;4938335;28;20194;-76
2023/11/09 02:17:05;;;;;;;11.82;6.15;;;;;;;;;;4937389;28;20093;-77
2023/11/09 02:19:30;;;;;;;10.85;6.32;;;;;;;;;;4940831;29;20050;-76
2023/11/09 02:22:16;;;;;;;13.63;7.00;;;;;;;;;;4956833;28;20039;-76
2023/11/09 02:24:46;;;;;;;13.18;6.30;;;;;;;;;;4940678;29;20097;-77
2023/11/09 02:27:12;;;;;;;11.93;6.70;;;;;;;;;;4941964;28;20130;-75
2023/11/09 02:29:41;;;;;;;11.65;6.38;;;;;;;;;;4942192;29;20043;-77
2023/11/09 02:32:07;;;;;;;10.57;6.72;;;;;;;;;;4943004;28;20042;-77
2023/11/09 02:34:37;;;;;;;14.90;7.18;;;;;;;;;;4942340;29;20035;-76
2023/11/09 02:37:06;;;;;;;13.55;7.40;;;;;;;;;;4940172;29;20536;-77
2023/11/09 02:39:33;;;;;;;22.75;9.75;;;;;;;;;;4940337;29;20137;-76
2023/11/09 02:42:02;;;;;;;28.90;9.48;;;;;;;;;;4935835;29;20138;-76
2023/11/09 02:44:28;;;;;;;17.15;8.82;;;;;;;;;;4920211;29;20465;-76
2023/11/09 02:46:54;;;;;;;21.02;11.45;;;;;;;;;;4888853;29;20048;-75
2023/11/09 02:49:21;;;;;;;21.23;11.13;;;;;;;;;;4920257;29;20052;-76
2023/11/09 02:51:47;;;;;;;20.75;11.73;;;;;;;;;;4920531;29;20482;-76
2023/11/09 02:54:15;;;;;;;20.35;10.02;;;;;;;;;;4919977;29;20151;-76
2023/11/09 02:56:41;;;;;;;21.90;10.90;;;;;;;;;;4919464;29;20062;-76
2023/11/09 02:59:07;;;;;;;23.98;10.10;;;;;;;;;;4919751;29;20047;-76
2023/11/09 03:01:35;;;;;;;18.05;10.25;;;;;;;;;;4919958;29;20047;-74
2023/11/09 03:04:02;;;;;;;23.17;9.95;;;;;;;;;;4882364;29;20050;-74
2023/11/09 03:06:28;;;;;;;20.83;8.73;;;;;;;;;;4866438;29;20112;-77
2023/11/09 03:08:54;;;;;;;14.60;8.57;;;;;;;;;;4866382;29;20516;-75
2023/11/09 03:11:20;;;;;;;14.15;7.97;;;;;;;;;;4898450;29;20050;-75
2023/11/09 03:13:46;;;;;;;14.90;8.00;;;;;;;;;;4898264;29;20047;-76
2023/11/09 03:16:13;;;;;;;17.77;7.95;;;;;;;;;;4899347;29;20481;-76
2023/11/09 03:18:41;;;;;;;14.07;7.75;;;;;;;;;;4905982;29;20052;-75
2023/11/09 03:21:11;;;;;;;13.68;7.75;;;;;;;;;;4924454;29;20493;-77
2023/11/09 03:23:37;;;;;;;18.85;8.55;;;;;;;;;;4919337;29;20047;-74
2023/11/09 03:26:04;;;;;;;14.98;8.10;;;;;;;;;;4909985;29;20528;-74
2023/11/09 03:28:31;;;;;;;16.23;8.10;;;;;;;;;;4923807;29;20207;-74
2023/11/09 03:30:59;;;;;;;14.85;8.75;;;;;;;;;;4920490;29;20122;-73
2023/11/09 03:33:25;;;;;;;14.68;8.23;;;;;;;;;;4943056;29;20045;-74
2023/11/09 03:35:51;;;;;;;17.65;9.48;;;;;;;;;;4917585;29;20138;-76
2023/11/09 03:38:17;;;;;;;13.98;7.72;;;;;;;;;;4936315;28;20126;-75
2023/11/09 03:40:45;;;;;;;14.77;8.43;;;;;;;;;;4948857;28;20039;-72
2023/11/09 03:43:11;;;;;;;21.75;8.82;;;;;;;;;;4947488;28;20106;-74
2023/11/09 03:45:37;;;;;;;18.02;8.65;;;;;;;;;;4947380;28;20038;-73
2023/11/09 03:48:03;;;;;;;18.33;8.13;;;;;;;;;;4950153;28;20574;-73
2023/11/09 03:50:28;;;;;;;24.33;8.60;;;;;;;;;;4946149;28;20121;-72
2023/11/09 03:52:54;;;;;;;28.40;17.08;;;;;;;;;;4960816;28;20096;-72
2023/11/09 03:55:20;;;;;;;19.92;10.20;;;;;;;;;;4956438;28;20046;-72
2023/11/09 03:57:46;;;;;;;21.48;8.10;;;;;;;;;;4984672;28;20086;-74
2023/11/09 04:00:12;;;;;;;19.85;8.20;;;;;;;;;;4938498;29;20054;-73
2023/11/09 04:02:42;;;;;;;18.77;8.48;;;;;;;;;;4943827;28;20499;-74
2023/11/09 04:05:11;;;;;;;18.67;9.05;;;;;;;;;;4955654;28;20442;-73
2023/11/09 04:07:40;;;;;;;13.82;8.52;;;;;;;;;;4946229;29;20035;-75
2023/11/09 04:10:06;;;;;;;25.30;8.88;;;;;;;;;;4948758;28;20129;-72
2023/11/09 04:12:32;;;;;;;16.85;7.90;;;;;;;;;;4962949;28;20169;-71
2023/11/09 04:14:59;;;;;;;30.23;9.38;;;;;;;;;;4948419;28;20120;-72
2023/11/09 04:17:25;;;;;;;25.23;9.65;;;;;;;;;;4969821;28;20038;-73
2023/11/09 04:19:50;;;;;;;19.88;9.60;;;;;;;;;;4951222;28;20046;-71
2023/11/09 04:22:16;;;;;;;27.02;10.48;;;;;;;;;;4962841;28;20473;-70
2023/11/09 04:24:41;;;;;;;23.58;10.45;;;;;;;;;;4947449;28;20465;-70
2023/11/09 04:27:08;;;;;;;27.42;10.18;;;;;;;;;;4987326;28;20097;-73
2023/11/09 04:29:34;;;;;;;22.63;11.02;;;;;;;;;;4948259;28;20042;-72
2023/11/09 04:32:01;;;;;;;28.13;11.10;;;;;;;;;;4948982;28;20022;-71
2023/11/09 04:34:26;;;;;;;25.40;11.23;;;;;;;;;;4960500;28;20035;-73
2023/11/09 04:36:52;;;;;;;25.30;11.02;;;;;;;;;;4947164;28;20030;-72
2023/11/09 04:39:29;;;;;;;23.98;10.30;;;;;;;;;;4972442;28;20138;-72
2023/11/09 04:41:58;;;;;;;17.38;9.95;;;;;;;;;;4956728;28;20031;-70
2023/11/09 04:44:24;;;;;;;19.00;10.85;;;;;;;;;;4986033;28;20047;-71
2023/11/09 04:46:53;;;;;;;14.38;9.52;;;;;;;;;;4951356;28;20049;-72
2023/11/09 04:49:20;;;;;;;20.60;9.05;;;;;;;;;;4954718;28;20101;-72
2023/11/09 04:51:48;;;;;;;24.88;9.30;;;;;;;;;;4954267;28;20104;-72
2023/11/09 04:54:24;;;;;;;28.45;10.85;;;;;;;;;;4954082;28;20449;-72
2023/11/09 05:07:25;;;;;;;18.67;9.52;;;;;;;;;;4971227;28;20041;-71
2023/11/09 05:09:51;;;;;;;19.42;9.82;;;;;;;;;;4955270;28;20039;-71
2023/11/09 05:12:17;;;;;;;22.92;9.82;;;;;;;;;;4955121;28;20039;-71
2023/11/09 05:14:43;;;;;;;15.23;8.65;;;;;;;;;;4954908;28;20043;-71
2023/11/09 05:17:09;;;;;;;17.48;9.52;;;;;;;;;;4957147;28;20034;-71
2023/11/09 05:19:35;;;;;;;17.52;8.07;;;;;;;;;;4956883;28;20065;-71
2023/11/09 05:22:02;;;;;;;18.85;8.93;;;;;;;;;;4956511;28;20035;-71
2023/11/09 05:24:27;;;;;;;18.83;8.98;;;;;;;;;;4956508;28;20046;-71
2023/11/09 05:26:53;;;;;;;19.38;9.07;;;;;;;;;;4972607;28;20237;-70
2023/11/09 05:29:19;;;;;;;19.45;9.10;;;;;;;;;;4973173;28;20034;-71
2023/11/09 05:31:45;;;;;;;20.42;8.70;;;;;;;;;;4956231;28;20041;-70
2023/11/09 05:34:11;;;;;;;20.88;9.07;;;;;;;;;;4956318;28;20054;-71
2023/11/09 05:36:37;;;;;;;21.38;9.35;;;;;;;;;;4956523;28;20031;-71
2023/11/09 05:39:05;;;;;;;17.25;9.23;;;;;;;;;;4972357;28;20058;-71
2023/11/09 05:41:31;;;;;;;16.10;9.05;;;;;;;;;;4956217;28;20375;-71
2023/11/09 05:43:58;;;;;;;17.02;9.32;;;;;;;;;;4972296;28;20344;-71
2023/11/09 05:46:23;;;;;;;19.80;9.20;;;;;;;;;;4972465;28;20077;-71
2023/11/09 05:48:50;;;;;;;18.58;9.13;;;;;;;;;;4956767;28;20035;-71
2023/11/09 05:51:20;;;;;;;16.38;9.95;;;;;;;;;;4956140;28;20066;-71
2023/11/09 05:53:51;;;;;;;18.67;9.23;;;;;;;;;;4973000;28;20089;-71
2023/11/09 05:56:17;;;;;;;21.95;9.18;;;;;;;;;;4956125;28;20202;-71
2023/11/09 05:58:43;;;;;;;17.88;9.25;;;;;;;;;;4955915;28;20183;-71
2023/11/09 06:01:08;;;;;;;20.92;8.70;;;;;;;;;;4956231;28;20093;-71
2023/11/09 06:03:34;;;;;;;27.02;9.38;;;;;;;;;;4955982;28;20070;-71
2023/11/09 06:06:00;;;;;;;17.83;8.80;;;;;;;;;;4956221;28;20133;-71
2023/11/09 06:08:25;;;;;;;22.35;9.13;;;;;;;;;;4956042;28;20051;-70
2023/11/09 06:10:53;;;;;;;27.95;9.05;;;;;;;;;;4956040;28;20039;-70
2023/11/09 06:13:18;;;;;;;21.77;9.63;;;;;;;;;;4971988;28;20468;-71
2023/11/09 06:15:44;;;;;;;27.80;8.68;;;;;;;;;;4955921;28;20030;-71
2023/11/09 06:18:10;;;;;;;34.97;9.18;;;;;;;;;;4972320;28;20039;-71
2023/11/09 06:20:37;;;;;;;27.83;8.93;;;;;;;;;;4955585;28;20461;-71
2023/11/09 06:23:04;;;;;;;30.73;9.07;;;;;;;;;;4955680;28;20042;-71
2023/11/09 06:25:29;;;;;;;23.90;9.70;;;;;;;;;;4955697;28;20042;-71
2023/11/09 06:27:55;;;;;;;30.60;9.63;;;;;;;;;;4955704;28;20039;-71
2023/11/09 06:30:21;;;;;;;29.50;9.07;;;;;;;;;;4955784;28;20106;-71
2023/11/09 06:32:46;;;;;;;48.45;9.98;;;;;;;;;;4955588;28;20070;-71
2023/11/09 06:35:18;;;;;;;35.35;9.13;;;;;;;;;;4956114;28;20034;-71
2023/11/09 06:37:45;;;;;;;28.35;8.90;;;;;;;;;;4956018;28;20077;-70
2023/11/09 06:40:12;;;;;;;41.50;9.60;;;;;;;;;;4955975;28;20057;-70
2023/11/09 06:42:39;;;;;;;23.15;8.90;;;;;;;;;;4955653;28;20042;-71
2023/11/09 06:45:05;;;;;;;31.55;10.35;;;;;;;;;;4955567;28;20042;-71
2023/11/09 06:47:31;;;;;;;28.35;10.38;;;;;;;;;;4955656;28;20043;-71
2023/11/09 06:49:58;;;;;;;37.60;12.27;;;;;;;;;;4955309;28;20425;-71
2023/11/09 06:52:24;;;;;;;52.35;12.13;;;;;;;;;;4955191;28;20050;-71
2023/11/09 06:54:50;;;;;;;30.38;10.00;;;;;;;;;;4955437;28;20026;-71
2023/11/09 06:57:15;;;;;;;36.03;10.95;;;;;;;;;;4955135;28;20067;-71
2023/11/09 06:59:41;;;;;;;35.25;10.40;;;;;;;;;;4939486;28;20468;-71
2023/11/09 07:02:07;;;;;;;29.40;10.55;;;;;;;;;;4971666;28;20043;-71
2023/11/09 07:04:33;;;;;;;44.80;11.32;;;;;;;;;;4940605;28;20031;-71
2023/11/09 07:06:59;;;;;;;30.17;9.27;;;;;;;;;;4958941;28;20060;-71
2023/11/09 07:09:24;;;;;;;32.80;8.50;;;;;;;;;;4958889;28;20034;-71
2023/11/09 07:11:52;;;;;;;29.25;7.95;;;;;;;;;;4958893;28;20043;-72
2023/11/09 07:14:23;;;;;;;24.80;7.68;;;;;;;;;;4959008;28;20038;-72
2023/11/09 07:16:55;;;;;;;26.85;6.53;;;;;;;;;;4958776;28;20034;-72
2023/11/09 07:19:22;;;;;;;22.08;6.80;;;;;;;;;;4958443;28;20421;-72
2023/11/09 07:21:49;;;;;;;19.88;6.57;;;;;;;;;;4942670;28;20093;-72
2023/11/09 07:24:17;;;;;;;22.30;6.32;;;;;;;;;;4959158;28;20108;-72
2023/11/09 07:26:42;;;;;;;22.98;6.50;;;;;;;;;;4958935;28;20370;-72
2023/11/09 07:29:09;;;;;;;18.90;5.60;;;;;;;;;;4958404;28;20035;-72
2023/11/09 07:31:35;;;;;;;27.05;6.00;;;;;;;;;;4958363;28;20061;-73
2023/11/09 07:34:01;;;;;;;20.73;6.05;;;;;;;;;;4958236;28;20030;-73
2023/11/09 07:36:26;;;;;;;29.15;6.05;;;;;;;;;;4958492;28;20058;-72
2023/11/09 07:38:52;;;;;;;20.45;5.60;;;;;;;;;;4958271;28;20043;-72
2023/11/09 07:41:18;;;;;;;16.20;5.30;;;;;;;;;;4958479;28;20034;-72
2023/11/09 07:43:44;;;;;;;19.25;5.65;;;;;;;;;;4974850;28;20038;-72
2023/11/09 07:46:09;;;;;;;15.75;5.50;;;;;;;;;;4958265;28;20042;-72
2023/11/09 07:48:35;;;;;;;24.50;6.25;;;;;;;;;;4958209;28;20035;-72
2023/11/09 07:51:01;;;;;;;28.08;6.53;;;;;;;;;;4958038;28;20137;-72
2023/11/09 07:53:26;;;;;;;25.98;6.68;;;;;;;;;;4974185;28;20456;-72
2023/11/09 07:55:52;;;;;;;27.65;6.88;;;;;;;;;;4958002;28;20050;-72
2023/11/09 07:58:18;;;;;;;27.02;6.70;;;;;;;;;;4958068;28;20061;-73
2023/11/09 08:00:44;;;;;;;22.73;6.45;;;;;;;;;;4942421;28;20074;-71
2023/11/09 08:03:11;;;;;;;15.77;6.35;;;;;;;;;;4974455;28;20041;-72
2023/11/09 08:05:41;;;;;;;17.48;6.00;;;;;;;;;;4958110;28;20052;-71
2023/11/09 08:08:10;;;;;;;17.35;5.75;;;;;;;;;;4957812;28;20043;-71
2023/11/09 08:10:40;;;;;;;22.90;5.95;;;;;;;;;;4957892;28;20070;-71
2023/11/09 08:13:07;;;;;;;19.98;6.47;;;;;;;;;;4957797;28;20038;-72
2023/11/09 08:15:36;;;;;;;23.42;6.65;;;;;;;;;;4937035;29;20130;-72
2023/11/09 08:18:02;;;;;;;16.13;5.88;;;;;;;;;;4921534;29;20135;-72
2023/11/09 08:20:29;;;;;;;14.85;6.38;;;;;;;;;;4921692;29;20126;-72
2023/11/09 08:22:59;;;;;;;22.27;6.05;;;;;;;;;;4937500;29;20050;-72
2023/11/09 08:25:27;;;;;;;18.05;5.68;;;;;;;;;;4937520;29;20055;-72
2023/11/09 08:27:53;;;;;;;18.90;5.43;;;;;;;;;;4937657;29;20387;-72
2023/11/09 08:30:21;;;;;;;19.10;5.80;;;;;;;;;;4921634;29;20500;-71
2023/11/09 08:32:49;;;;;;;15.25;4.90;;;;;;;;;;4937366;29;20432;-72
2023/11/09 08:35:14;;;;;;;17.00;5.75;;;;;;;;;;4921277;29;20050;-72
2023/11/09 08:37:41;;;;;;;25.08;6.25;;;;;;;;;;4937144;29;20039;-72
2023/11/09 08:40:09;;;;;;;19.73;5.68;;;;;;;;;;4936870;29;20047;-71
2023/11/09 08:42:36;;;;;;;17.70;5.93;;;;;;;;;;4953010;28;20497;-72
2023/11/09 08:45:04;;;;;;;19.65;6.30;;;;;;;;;;4937082;29;20135;-72
2023/11/09 08:47:30;;;;;;;27.80;6.22;;;;;;;;;;4969966;28;20429;-71
2023/11/09 08:49:56;;;;;;;20.63;6.22;;;;;;;;;;4957016;28;20054;-71
2023/11/09 08:52:23;;;;;;;16.63;5.68;;;;;;;;;;4957102;28;20041;-72
2023/11/09 08:54:52;;;;;;;20.73;6.75;;;;;;;;;;4973453;28;20196;-72
2023/11/09 08:57:18;;;;;;;33.17;7.75;;;;;;;;;;4973144;28;20062;-72
2023/11/09 08:59:44;;;;;;;24.15;7.47;;;;;;;;;;4956974;28;20061;-71
2023/11/09 09:02:10;;;;;;;25.05;7.82;;;;;;;;;;4957252;28;20060;-71
2023/11/09 09:04:35;;;;;;;23.70;7.68;;;;;;;;;;4956977;28;20041;-72
2023/11/09 09:07:01;;;;;;;20.90;7.50;;;;;;;;;;4956776;28;20117;-71
2023/11/09 09:09:27;;;;;;;22.20;7.60;;;;;;;;;;4957073;28;20081;-72
2023/11/09 09:11:53;;;;;;;26.63;8.57;;;;;;;;;;4956958;28;20097;-72
2023/11/09 09:14:19;;;;;;;24.90;8.68;;;;;;;;;;4956874;28;20400;-71
2023/11/09 09:16:45;;;;;;;25.85;9.43;;;;;;;;;;4956508;28;20031;-71
2023/11/09 09:19:10;;;;;;;34.05;10.63;;;;;;;;;;4956266;28;20046;-71
2023/11/09 09:21:36;;;;;;;22.92;11.23;;;;;;;;;;4956640;28;20429;-71
2023/11/09 09:24:03;;;;;;;23.30;11.43;;;;;;;;;;4956420;28;20067;-71
2023/11/09 09:26:30;;;;;;;49.58;11.88;;;;;;;;;;4956118;28;20039;-71
2023/11/09 09:28:56;;;;;;;36.80;10.55;;;;;;;;;;4972042;28;20049;-71
2023/11/09 09:31:23;;;;;;;23.50;11.13;;;;;;;;;;4972536;28;20061;-71
2023/11/09 09:33:56;;;;;;;29.42;11.15;;;;;;;;;;4956262;28;20113;-71
2023/11/09 09:36:22;;;;;;;36.08;11.60;;;;;;;;;;4956285;28;20076;-71
2023/11/09 09:38:48;;;;;;;33.47;10.55;;;;;;;;;;4956126;28;20074;-71
2023/11/09 09:41:15;;;;;;;31.83;11.32;;;;;;;;;;4940163;28;20046;-71
2023/11/09 09:43:42;;;;;;;28.60;11.27;;;;;;;;;;4972409;28;20105;-71
2023/11/09 09:46:12;;;;;;;27.63;11.07;;;;;;;;;;4940806;28;20065;-71
2023/11/09 09:48:38;;;;;;;20.98;10.02;;;;;;;;;;4956256;28;20435;-71
2023/11/09 09:51:06;;;;;;;41.88;10.48;;;;;;;;;;4940143;28;20038;-71
2023/11/09 09:53:32;;;;;;;32.50;10.75;;;;;;;;;;4972095;28;20034;-71
2023/11/09 09:55:58;;;;;;;28.30;10.65;;;;;;;;;;4955798;28;20034;-71
2023/11/09 09:58:24;;;;;;;30.08;9.88;;;;;;;;;;4972244;28;20074;-71
2023/11/09 10:00:54;;;;;;;29.60;10.95;;;;;;;;;;4956174;28;20112;-71
2023/11/09 10:03:23;;;;;;;29.25;9.75;;;;;;;;;;4956249;28;20034;-71
2023/11/09 10:05:48;;;;;;;23.08;9.50;;;;;;;;;;4955707;28;20125;-71
2023/11/09 10:08:15;;;;;;;20.92;8.73;;;;;;;;;;4955845;28;20452;-71
2023/11/09 10:10:44;;;;;;;28.55;9.07;;;;;;;;;;4956024;28;20058;-71
2023/11/09 10:13:13;;;;;;;23.15;8.75;;;;;;;;;;4956042;28;20035;-71
2023/11/09 10:15:41;;;;;;;29.15;9.32;;;;;;;;;;4935572;29;20053;-71
2023/11/09 10:18:06;;;;;;;29.77;8.52;;;;;;;;;;4904040;29;20096;-71
2023/11/09 10:20:32;;;;;;;18.45;7.90;;;;;;;;;;4904140;29;20055;-71
2023/11/09 10:23:01;;;;;;;26.80;7.32;;;;;;;;;;4904041;29;20154;-71
2023/11/09 10:25:27;;;;;;;22.17;7.68;;;;;;;;;;4904111;29;20481;-71
2023/11/09 10:28:00;;;;;;;27.98;7.78;;;;;;;;;;4920710;29;20055;-71
2023/11/09 10:30:29;;;;;;;29.50;7.45;;;;;;;;;;4932862;29;20054;-71
2023/11/09 10:33:03;;;;;;;15.35;6.72;;;;;;;;;;4932492;29;20149;-71
2023/11/09 10:35:28;;;;;;;21.27;6.65;;;;;;;;;;4932684;29;20126;-71
2023/11/09 10:37:57;;;;;;;24.73;7.50;;;;;;;;;;4932446;29;20051;-71
2023/11/09 10:40:23;;;;;;;25.23;6.53;;;;;;;;;;4902606;29;20056;-72
2023/11/09 10:42:50;;;;;;;20.88;6.82;;;;;;;;;;4936113;29;20138;-71
2023/11/09 10:45:18;;;;;;;17.83;6.90;;;;;;;;;;4920061;29;20189;-71
2023/11/09 10:47:46;;;;;;;22.02;7.43;;;;;;;;;;4939093;28;20050;-71
2023/11/09 10:50:15;;;;;;;22.40;7.60;;;;;;;;;;4923522;28;20465;-71
2023/11/09 10:52:42;;;;;;;22.63;7.43;;;;;;;;;;4907551;29;20133;-71
2023/11/09 10:55:09;;;;;;;19.35;7.60;;;;;;;;;;4923289;28;20043;-71
2023/11/09 10:57:37;;;;;;;20.05;7.97;;;;;;;;;;4938989;29;20063;-71
2023/11/09 11:00:03;;;;;;;17.27;7.95;;;;;;;;;;4938962;29;20050;-71
2023/11/09 11:02:34;;;;;;;22.60;8.00;;;;;;;;;;4958504;28;20129;-71
2023/11/09 11:05:03;;;;;;;22.73;7.90;;;;;;;;;;4959055;28;20129;-71
2023/11/09 11:07:30;;;;;;;25.48;7.85;;;;;;;;;;4959544;28;20444;-71
2023/11/09 11:09:58;;;;;;;19.08;8.02;;;;;;;;;;4959860;28;20034;-71
2023/11/09 11:12:24;;;;;;;27.38;9.73;;;;;;;;;;4959043;28;20046;-72
2023/11/09 11:14:51;;;;;;;18.08;7.97;;;;;;;;;;4958787;28;20027;-71
2023/11/09 11:17:24;;;;;;;27.15;8.10;;;;;;;;;;4958725;28;20050;-71
2023/11/09 11:19:59;;;;;;;25.70;7.82;;;;;;;;;;4958778;28;20564;-71
2023/11/09 11:22:48;;;;;;;15.90;8.25;;;;;;;;;;4959106;28;20189;-71
2023/11/09 11:25:18;;;;;;;26.13;8.25;;;;;;;;;;4935377;29;20031;-71
2023/11/09 11:27:48;;;;;;;17.38;7.90;;;;;;;;;;4985800;28;20141;-71
2023/11/09 11:30:14;;;;;;;20.52;7.82;;;;;;;;;;4974980;28;20039;-71
2023/11/09 11:32:40;;;;;;;17.95;7.60;;;;;;;;;;4958790;28;20102;-71
2023/11/09 11:35:06;;;;;;;14.75;6.65;;;;;;;;;;4958713;28;20043;-71
2023/11/09 11:37:33;;;;;;;13.25;6.75;;;;;;;;;;4958883;28;20358;-71
2023/11/09 11:40:05;;;;;;;17.00;7.07;;;;;;;;;;4958460;28;20475;-71
2023/11/09 11:42:34;;;;;;;14.73;6.50;;;;;;;;;;4958604;28;20042;-71
2023/11/09 11:45:00;;;;;;;15.50;6.32;;;;;;;;;;4958557;28;20030;-71
2023/11/09 11:47:29;;;;;;;17.13;6.07;;;;;;;;;;4959299;28;20078;-71
2023/11/09 11:49:57;;;;;;;15.48;5.70;;;;;;;;;;4975149;28;20066;-71
2023/11/09 11:52:23;;;;;;;14.30;5.50;;;;;;;;;;4922097;29;20050;-71
2023/11/09 11:54:52;;;;;;;9.80;4.53;;;;;;;;;;4937612;29;20055;-72
2023/11/09 11:57:20;;;;;;;15.65;4.95;;;;;;;;;;4937734;29;20059;-71
2023/11/09 12:00:08;;;;;;;10.23;4.45;;;;;;;;;;4921996;29;20055;-71
2023/11/09 12:02:40;;;;;;;11.82;4.82;;;;;;;;;;4906675;29;20049;-74
2023/11/09 12:05:09;;;;;;;9.45;4.50;;;;;;;;;;4942334;29;20612;-72
2023/11/09 12:07:40;;;;;;;10.90;4.78;;;;;;;;;;4938326;29;20055;-71
2023/11/09 12:10:05;;;;;;;11.88;4.43;;;;;;;;;;4922777;29;20131;-72
2023/11/09 12:12:34;;;;;;;11.30;4.50;;;;;;;;;;4906562;29;20134;-71
2023/11/09 12:15:00;;;;;;;11.88;4.45;;;;;;;;;;4921956;29;20484;-71
2023/11/09 12:17:26;;;;;;;14.70;4.57;;;;;;;;;;4937674;29;20047;-71
2023/11/09 12:19:51;;;;;;;10.02;4.63;;;;;;;;;;4921723;29;20047;-71
2023/11/09 12:22:17;;;;;;;8.40;4.47;;;;;;;;;;4907132;28;20111;-71
2023/11/09 12:24:44;;;;;;;9.90;4.13;;;;;;;;;;4957606;28;20556;-71
2023/11/09 12:27:10;;;;;;;9.43;4.50;;;;;;;;;;4957776;28;20037;-71
2023/11/09 12:29:38;;;;;;;14.32;4.20;;;;;;;;;;4958454;28;20134;-71
2023/11/09 12:32:04;;;;;;;14.82;4.57;;;;;;;;;;4956249;28;20034;-70
2023/11/09 12:34:32;;;;;;;13.43;4.43;;;;;;;;;;4955163;28;20055;-70
2023/11/09 12:36:59;;;;;;;14.75;5.15;;;;;;;;;;4954969;28;20487;-70
2023/11/09 12:39:28;;;;;;;17.15;5.35;;;;;;;;;;4954881;28;20042;-71
2023/11/09 12:41:58;;;;;;;16.70;5.25;;;;;;;;;;4954913;28;20545;-71
2023/11/09 12:44:29;;;;;;;15.85;5.03;;;;;;;;;;4955404;28;20031;-70
2023/11/09 12:46:56;;;;;;;16.27;5.85;;;;;;;;;;4956269;28;20488;-70
2023/11/09 12:49:23;;;;;;;12.25;5.18;;;;;;;;;;4957802;28;20053;-70
2023/11/09 12:51:50;;;;;;;15.95;5.32;;;;;;;;;;4957072;28;20461;-71
2023/11/09 12:54:17;;;;;;;19.00;5.28;;;;;;;;;;4957106;28;20125;-71
2023/11/09 12:56:45;;;;;;;13.10;5.20;;;;;;;;;;4956984;28;20593;-71
2023/11/09 12:59:14;;;;;;;12.43;5.50;;;;;;;;;;4957391;28;20050;-71
2023/11/09 13:01:41;;;;;;;13.55;5.85;;;;;;;;;;4956465;28;20055;-71
2023/11/09 13:04:19;;;;;;;18.60;6.00;;;;;;;;;;4956645;28;20097;-71
2023/11/09 13:06:44;;;;;;;12.25;5.72;;;;;;;;;;4957046;28;20072;-70
2023/11/09 13:12:25;;;;;;;17.27;5.82;;;;;;;;;;4956527;28;20034;-71
2023/11/09 13:14:42;;;;;;;18.75;6.70;;;;;;;;;;4972531;28;20408;-71
2023/11/09 13:17:17;;;;;;;15.70;6.35;;;;;;;;;;4956953;28;20484;-71
2023/11/09 13:19:50;;;;;;;9.30;5.93;;;;;;;;;;4956719;28;20438;-70
2023/11/09 13:22:17;;;;;;;20.50;6.35;;;;;;;;;;4956661;28;20048;-71
2023/11/09 13:24:52;;;;;;;14.48;6.05;;;;;;;;;;4956640;28;20145;-71
2023/11/09 13:27:24;;;;;;;17.98;5.88;;;;;;;;;;4956704;28;20479;-71
2023/11/09 13:29:50;;;;;;;18.02;5.68;;;;;;;;;;4956857;28;20039;-70
2023/11/09 13:32:23;;;;;;;20.92;5.88;;;;;;;;;;4956438;28;20353;-70
2023/11/09 13:34:58;;;;;;;11.73;5.40;;;;;;;;;;4956334;28;20050;-71
2023/11/09 13:37:32;;;;;;;15.00;5.03;;;;;;;;;;4956479;28;20062;-70
2023/11/09 13:42:45;;;;;;;9.15;4.50;;;;;;;;;;4956318;28;20461;-71
2023/11/09 13:45:34;;;;;;;10.35;3.95;;;;;;;;;;4956589;28;20035;-70
2023/11/09 13:48:07;;;;;;;7.32;3.95;;;;;;;;;;4956702;28;20050;-70
2023/11/09 13:50:36;;;;;;;11.77;4.35;;;;;;;;;;4956417;28;20044;-70
2023/11/09 13:53:11;;;;;;;10.48;3.67;;;;;;;;;;4956363;28;20082;-70
2023/11/09 13:58:25;;;;;;;7.40;3.42;;;;;;;;;;4955539;28;20416;-71
2023/11/09 14:01:00;;;;;;;10.02;3.78;;;;;;;;;;4956017;28;20073;-71
2023/11/09 14:03:32;;;;;;;10.63;3.80;;;;;;;;;;4956058;28;20042;-70
2023/11/09 14:06:01;;;;;;;8.57;3.70;;;;;;;;;;4955957;28;20030;-70
2023/11/09 14:08:27;;;;;;;8.20;3.47;;;;;;;;;;4972444;28;20046;-70
2023/11/09 14:10:53;;;;;;;11.85;4.13;;;;;;;;;;4955806;28;20031;-71
2023/11/09 14:13:46;;;;;;;11.60;4.15;;;;;;;;;;4956405;28;20065;-70
2023/11/09 14:16:22;;;;;;;13.45;4.03;;;;;;;;;;4975609;28;20039;-71
2023/11/09 14:18:56;;;;;;;10.23;3.88;;;;;;;;;;4977073;28;20047;-71
2023/11/09 14:21:24;;;;;;;11.48;3.85;;;;;;;;;;4959962;28;20039;-70
2023/11/09 14:23:50;;;;;;;8.63;3.40;;;;;;;;;;4959636;28;20129;-70
2023/11/09 14:26:21;;;;;;;12.60;3.70;;;;;;;;;;4960140;28;20030;-71
2023/11/09 14:28:48;;;;;;;8.45;3.47;;;;;;;;;;4959812;28;20469;-71
2023/11/09 14:31:16;;;;;;;6.90;2.97;;;;;;;;;;4959725;28;20042;-70
2023/11/09 14:33:44;;;;;;;14.20;3.20;;;;;;;;;;4959508;28;20039;-71
2023/11/09 14:36:10;;;;;;;13.55;3.60;;;;;;;;;;4959735;28;20469;-71
2023/11/09 14:38:36;;;;;;;9.13;3.25;;;;;;;;;;4959476;28;20076;-70
2023/11/09 14:41:05;;;;;;;13.35;3.85;;;;;;;;;;4975589;28;20421;-71
2023/11/09 14:43:33;;;;;;;15.57;3.60;;;;;;;;;;4959455;28;20061;-71
2023/11/09 14:46:04;;;;;;;15.23;3.55;;;;;;;;;;4959912;28;20121;-71
2023/11/09 14:48:30;;;;;;;13.13;3.67;;;;;;;;;;4959645;28;20050;-71